createdAt,value
2019-05-29T00:00:07.853Z,11.36
2019-05-29T00:02:59.854Z,11.31
2019-05-29T00:05:51.841Z,11.14
2019-05-29T00:08:43.761Z,10.95
2019-05-29T00:11:35.595Z,10.55
2019-05-29T00:14:27.903Z,10.76
2019-05-29T00:17:19.755Z,10.76
2019-05-29T00:20:12.386Z,10.93
2019-05-29T00:23:04.517Z,10.93
2019-05-29T00:25:56.627Z,10.93
2019-05-29T00:28:48.687Z,10.89
2019-05-29T00:31:40.746Z,10.89
2019-05-29T00:34:32.583Z,10.86
2019-05-29T00:37:24.404Z,10.85
2019-05-29T00:40:17.115Z,10.85
2019-05-29T00:43:09.570Z,10.61
2019-05-29T00:46:01.405Z,10.58
2019-05-29T00:48:53.433Z,10.66
2019-05-29T00:51:45.611Z,10.66
2019-05-29T00:54:37.843Z,10.58
2019-05-29T00:57:29.670Z,10.58
2019-05-29T01:00:21.753Z,10.50
2019-05-29T01:03:13.829Z,10.48
2019-05-29T01:06:05.628Z,10.37
2019-05-29T01:08:57.283Z,10.26
2019-05-29T01:11:49.465Z,10.00
2019-05-29T01:14:49.713Z,10.00
2019-05-29T01:17:35.234Z,10.09
2019-05-29T01:20:27.180Z,10.10
2019-05-29T01:23:20.350Z,10.10
2019-05-29T01:26:14.486Z,10.12
2019-05-29T01:29:06.644Z,10.13
2019-05-29T01:31:58.667Z,10.05
2019-05-29T01:34:50.708Z,9.99
2019-05-29T01:37:42.467Z,9.99
2019-05-29T01:40:34.484Z,9.95
2019-05-29T01:43:27.660Z,9.82
2019-05-29T01:46:19.833Z,9.47
2019-05-29T01:49:12.160Z,9.53
2019-05-29T01:52:04.055Z,9.57
2019-05-29T01:54:56.387Z,9.70
2019-05-29T01:57:48.810Z,9.70
2019-05-29T02:00:41.187Z,9.72
2019-05-29T02:03:33.494Z,9.69
2019-05-29T02:06:25.618Z,9.68
2019-05-29T02:09:17.982Z,9.70
2019-05-29T02:12:09.982Z,9.66
2019-05-29T02:15:02.269Z,9.59
2019-05-29T02:17:54.411Z,9.49
2019-05-29T02:20:46.447Z,9.53
2019-05-29T02:23:38.415Z,9.23
2019-05-29T02:26:30.532Z,9.38
2019-05-29T02:29:22.942Z,9.38
2019-05-29T02:32:14.939Z,8.85
2019-05-29T02:35:07.286Z,8.45
2019-05-29T02:37:59.157Z,8.65
2019-05-29T02:40:51.253Z,8.65
2019-05-29T02:43:43.097Z,8.94
2019-05-29T02:46:34.987Z,9.11
2019-05-29T02:49:28.121Z,9.13
2019-05-29T02:52:20.111Z,9.14
2019-05-29T02:55:11.975Z,9.14
2019-05-29T02:58:03.829Z,9.14
2019-05-29T03:00:55.555Z,9.08
2019-05-29T03:03:47.404Z,8.96
2019-05-29T03:06:39.173Z,8.96
2019-05-29T03:09:32.527Z,8.65
2019-05-29T03:12:25.068Z,8.65
2019-05-29T03:15:17.203Z,8.73
2019-05-29T03:18:08.991Z,8.84
2019-05-29T03:21:01.068Z,8.84
2019-05-29T03:23:52.879Z,8.81
2019-05-29T03:26:44.821Z,8.81
2019-05-29T03:29:38.587Z,8.86
2019-05-29T03:32:32.392Z,8.86
2019-05-29T03:35:24.054Z,8.50
2019-05-29T03:38:16.095Z,8.74
2019-05-29T03:41:07.746Z,8.82
2019-05-29T03:43:59.825Z,8.82
2019-05-29T03:46:51.610Z,8.84
2019-05-29T03:49:43.321Z,8.89
2019-05-29T03:52:35.149Z,8.84
2019-05-29T03:55:27.496Z,8.84
2019-05-29T03:58:20.563Z,8.72
2019-05-29T04:01:13.399Z,8.73
2019-05-29T04:04:05.719Z,7.98
2019-05-29T04:06:57.768Z,7.63
2019-05-29T04:09:49.822Z,8.08
2019-05-29T04:12:41.697Z,8.09
2019-05-29T04:15:36.187Z,7.97
2019-05-29T04:18:29.709Z,7.92
2019-05-29T04:21:21.966Z,8.08
2019-05-29T04:24:14.127Z,8.36
2019-05-29T04:27:07.205Z,8.56
2019-05-29T04:30:00.243Z,8.78
2019-05-29T04:32:52.104Z,8.85
2019-05-29T04:35:44.210Z,8.77
2019-05-29T04:38:38.437Z,8.93
2019-05-29T04:41:30.918Z,8.69
2019-05-29T04:44:23.167Z,8.69
2019-05-29T04:47:15.287Z,8.59
2019-05-29T04:50:07.370Z,8.91
2019-05-29T04:52:59.202Z,9.11
2019-05-29T04:55:51.083Z,9.22
2019-05-29T04:58:43.040Z,8.98
2019-05-29T05:01:35.091Z,9.22
2019-05-29T05:04:27.175Z,9.37
2019-05-29T05:07:18.926Z,9.21
2019-05-29T05:10:10.726Z,9.08
2019-05-29T05:13:03.059Z,9.53
2019-05-29T05:15:54.945Z,9.68
2019-05-29T05:18:46.896Z,9.68
2019-05-29T05:21:38.624Z,10.05
2019-05-29T05:24:30.647Z,9.86
2019-05-29T05:27:22.538Z,9.70
2019-05-29T05:30:14.908Z,10.25
2019-05-29T05:33:06.649Z,10.25
2019-05-29T05:35:58.740Z,10.18
2019-05-29T05:38:50.937Z,10.37
2019-05-29T05:41:42.892Z,10.42
2019-05-29T05:44:34.989Z,10.80
2019-05-29T05:47:43.469Z,10.80
2019-05-29T05:50:20.869Z,10.74
2019-05-29T05:53:13.822Z,10.74
2019-05-29T05:56:06.067Z,10.87
2019-05-29T05:58:57.879Z,10.87
2019-05-29T06:01:50.232Z,11.27
2019-05-29T06:04:42.427Z,10.98
2019-05-29T06:07:34.649Z,11.28
2019-05-29T06:10:26.797Z,11.28
2019-05-29T06:13:18.999Z,11.51
2019-05-29T06:16:11.039Z,11.76
2019-05-29T06:19:03.496Z,11.96
2019-05-29T06:21:55.589Z,11.90
2019-05-29T06:24:47.660Z,12.09
2019-05-29T06:27:39.416Z,12.09
2019-05-29T06:30:31.329Z,11.95
2019-05-29T06:33:23.289Z,12.03
2019-05-29T06:36:15.090Z,12.27
2019-05-29T06:39:07.116Z,12.42
2019-05-29T06:41:59.173Z,12.37
2019-05-29T06:44:51.420Z,12.45
2019-05-29T06:47:44.613Z,12.58
2019-05-29T06:50:37.474Z,12.58
2019-05-29T06:53:29.608Z,12.89
2019-05-29T06:56:21.864Z,12.98
2019-05-29T06:59:14.058Z,12.98
2019-05-29T07:02:06.219Z,12.30
2019-05-29T07:04:58.076Z,12.68
2019-05-29T07:07:49.846Z,12.68
2019-05-29T07:10:42.640Z,13.12
2019-05-29T07:13:35.400Z,13.12
2019-05-29T07:16:43.254Z,13.41
2019-05-29T07:19:28.214Z,13.50
2019-05-29T07:22:16.375Z,13.21
2019-05-29T07:25:08.728Z,13.44
2019-05-29T07:28:01.026Z,13.44
2019-05-29T07:31:00.995Z,13.91
2019-05-29T07:33:47.425Z,14.02
2019-05-29T07:36:39.932Z,14.02
2019-05-29T07:39:32.190Z,14.02
2019-05-29T07:42:23.984Z,13.22
2019-05-29T07:45:15.782Z,13.17
2019-05-29T07:48:07.657Z,14.04
2019-05-29T07:51:06.952Z,13.63
2019-05-29T07:53:53.524Z,13.67
2019-05-29T07:56:46.530Z,14.20
2019-05-29T07:59:38.831Z,14.20
2019-05-29T08:02:31.064Z,14.61
2019-05-29T08:05:23.212Z,14.61
2019-05-29T08:08:15.263Z,14.75
2019-05-29T08:11:07.039Z,15.03
2019-05-29T08:13:59.099Z,15.03
2019-05-29T08:16:51.169Z,13.97
2019-05-29T08:20:00.353Z,14.40
2019-05-29T08:22:36.726Z,14.12
2019-05-29T08:25:28.590Z,14.12
2019-05-29T08:28:20.423Z,14.66
2019-05-29T08:31:12.242Z,14.74
2019-05-29T08:34:04.242Z,14.48
2019-05-29T08:37:06.631Z,15.02
2019-05-29T08:39:51.576Z,14.73
2019-05-29T08:42:45.162Z,14.58
2019-05-29T08:45:37.469Z,15.01
2019-05-29T08:48:29.425Z,14.88
2019-05-29T08:51:21.467Z,15.23
2019-05-29T08:54:23.591Z,15.23
2019-05-29T08:57:07.338Z,15.71
2019-05-29T08:59:59.573Z,16.06
2019-05-29T09:02:52.712Z,16.28
2019-05-29T09:05:44.930Z,15.94
2019-05-29T09:08:37.045Z,15.94
2019-05-29T09:11:29.015Z,16.17
2019-05-29T09:14:21.154Z,16.28
2019-05-29T09:17:14.592Z,16.33
2019-05-29T09:20:06.794Z,16.30
2019-05-29T09:22:59.015Z,16.30
2019-05-29T09:25:50.847Z,15.85
2019-05-29T09:28:43.024Z,15.96
2019-05-29T09:31:35.129Z,16.03
2019-05-29T09:34:27.110Z,15.59
2019-05-29T09:37:20.421Z,15.51
2019-05-29T09:40:17.024Z,15.51
2019-05-29T09:43:09.230Z,15.93
2019-05-29T09:46:02.338Z,16.42
2019-05-29T09:48:54.586Z,16.84
2019-05-29T09:51:46.984Z,16.84
2019-05-29T09:54:38.933Z,16.52
2019-05-29T09:57:31.120Z,16.18
2019-05-29T10:00:23.026Z,16.18
2019-05-29T10:03:14.749Z,17.23
2019-05-29T10:06:09.317Z,17.23
2019-05-29T10:09:01.638Z,17.83
2019-05-29T10:11:58.031Z,16.77
2019-05-29T10:14:51.193Z,16.77
2019-05-29T10:17:41.414Z,17.15
2019-05-29T10:20:33.515Z,17.02
2019-05-29T10:23:25.543Z,17.02
2019-05-29T10:26:22.152Z,17.24
2019-05-29T10:29:14.430Z,17.68
2019-05-29T10:32:06.767Z,17.85
2019-05-29T10:34:59.179Z,17.78
2019-05-29T10:37:51.281Z,17.71
2019-05-29T10:40:50.130Z,17.71
2019-05-29T10:43:37.310Z,18.09
2019-05-29T10:46:29.593Z,18.26
2019-05-29T10:49:21.769Z,18.26
2019-05-29T10:52:17.176Z,18.64
2019-05-29T10:55:07.373Z,19.06
2019-05-29T10:57:59.799Z,18.94
2019-05-29T11:00:51.990Z,18.93
2019-05-29T11:03:45.522Z,19.29
2019-05-29T11:06:40.432Z,19.08
2019-05-29T11:09:44.145Z,19.31
2019-05-29T11:12:25.519Z,19.33
2019-05-29T11:15:21.437Z,19.33
2019-05-29T11:18:11.337Z,19.40
2019-05-29T11:21:03.394Z,19.54
2019-05-29T11:23:56.034Z,19.54
2019-05-29T11:26:48.407Z,19.19
2019-05-29T11:29:40.834Z,18.61
2019-05-29T11:32:33.040Z,17.98
2019-05-29T11:35:25.328Z,17.51
2019-05-29T11:38:17.240Z,17.51
2019-05-29T11:41:25.035Z,18.03
2019-05-29T11:44:03.523Z,18.37
2019-05-29T11:46:56.129Z,18.70
2019-05-29T11:49:48.062Z,18.67
2019-05-29T11:52:42.929Z,18.56
2019-05-29T11:55:33.709Z,19.23
2019-05-29T11:58:30.991Z,19.23
2019-05-29T12:01:19.255Z,19.23
2019-05-29T12:04:24.184Z,19.20
2019-05-29T12:07:05.985Z,19.06
2019-05-29T12:09:59.492Z,19.49
2019-05-29T12:12:51.467Z,19.49
2019-05-29T12:15:43.935Z,18.99
2019-05-29T12:18:35.701Z,19.37
2019-05-29T12:21:28.007Z,18.53
2019-05-29T12:24:19.851Z,19.29
2019-05-29T12:27:12.224Z,19.44
2019-05-29T12:30:08.846Z,19.74
2019-05-29T12:33:01.201Z,19.88
2019-05-29T12:35:52.967Z,19.82
2019-05-29T12:38:44.971Z,19.82
2019-05-29T12:41:37.145Z,19.35
2019-05-29T12:44:28.983Z,19.61
2019-05-29T12:47:21.041Z,19.45
2019-05-29T12:50:14.547Z,19.45
2019-05-29T12:53:06.083Z,19.36
2019-05-29T12:55:58.362Z,19.09
2019-05-29T12:58:50.210Z,19.65
2019-05-29T13:01:42.231Z,19.82
2019-05-29T13:05:05.117Z,19.61
2019-05-29T13:07:27.440Z,19.90
2019-05-29T13:10:29.884Z,20.20
2019-05-29T13:13:13.431Z,20.34
2019-05-29T13:16:05.454Z,20.64
2019-05-29T13:18:57.399Z,20.46
2019-05-29T13:21:49.576Z,20.32
2019-05-29T13:24:41.272Z,20.67
2019-05-29T13:27:33.291Z,21.51
2019-05-29T13:30:25.492Z,21.51
2019-05-29T13:33:17.239Z,20.74
2019-05-29T13:36:09.261Z,20.93
2019-05-29T13:39:02.369Z,20.00
2019-05-29T13:41:54.137Z,20.40
2019-05-29T13:44:46.457Z,20.40
2019-05-29T13:47:38.368Z,20.65
2019-05-29T13:50:30.173Z,20.43
2019-05-29T13:53:22.339Z,20.83
2019-05-29T13:56:14.381Z,21.27
2019-05-29T13:59:06.715Z,21.75
2019-05-29T14:02:00.263Z,22.22
2019-05-29T14:04:52.290Z,22.42
2019-05-29T14:07:44.270Z,21.89
2019-05-29T14:10:36.418Z,21.84
2019-05-29T14:13:28.508Z,22.31
2019-05-29T14:16:20.468Z,21.72
2019-05-29T14:19:13.617Z,21.72
2019-05-29T14:22:07.002Z,22.38
2019-05-29T14:24:59.175Z,22.22
2019-05-29T14:27:51.072Z,21.14
2019-05-29T14:30:42.905Z,21.42
2019-05-29T14:33:35.132Z,21.42
2019-05-29T14:36:26.919Z,22.07
2019-05-29T14:39:19.147Z,22.07
2019-05-29T14:42:11.881Z,23.31
2019-05-29T14:45:08.370Z,23.01
2019-05-29T14:48:02.147Z,23.16
2019-05-29T14:50:54.275Z,23.20
2019-05-29T14:53:45.955Z,23.33
2019-05-29T14:56:38.073Z,24.10
2019-05-29T14:59:29.963Z,24.10
2019-05-29T15:02:24.189Z,24.20
2019-05-29T15:05:16.797Z,23.71
2019-05-29T15:08:10.065Z,23.63
2019-05-29T15:11:03.650Z,23.46
2019-05-29T15:13:55.809Z,22.85
2019-05-29T15:16:47.897Z,22.47
2019-05-29T15:19:39.809Z,21.23
2019-05-29T15:22:31.574Z,21.23
2019-05-29T15:25:24.482Z,20.91
2019-05-29T15:28:18.024Z,20.91
2019-05-29T15:31:10.408Z,20.72
2019-05-29T15:34:02.455Z,20.33
2019-05-29T15:36:54.334Z,20.35
2019-05-29T15:39:46.226Z,20.54
2019-05-29T15:42:38.052Z,21.81
2019-05-29T15:45:30.143Z,21.81
2019-05-29T15:48:22.339Z,22.58
2019-05-29T15:51:15.107Z,22.58
2019-05-29T15:54:07.138Z,24.62
2019-05-29T15:56:59.307Z,24.62
2019-05-29T15:59:51.313Z,25.76
2019-05-29T16:02:43.259Z,25.76
2019-05-29T16:05:35.257Z,26.04
2019-05-29T16:08:27.327Z,25.77
2019-05-29T16:11:19.265Z,25.24
2019-05-29T16:14:11.035Z,24.62
2019-05-29T16:17:02.725Z,24.58
2019-05-29T16:19:54.774Z,22.75
2019-05-29T16:22:46.723Z,22.14
2019-05-29T16:25:40.674Z,22.14
2019-05-29T16:28:32.000Z,23.00
2019-05-29T16:31:24.048Z,22.95
2019-05-29T16:34:18.397Z,23.05
2019-05-29T16:37:11.117Z,23.47
2019-05-29T16:40:08.601Z,23.47
2019-05-29T16:43:00.255Z,23.19
2019-05-29T16:45:52.148Z,23.41
2019-05-29T16:48:43.989Z,23.41
2019-05-29T16:51:35.761Z,23.39
2019-05-29T16:54:27.827Z,23.39
2019-05-29T16:57:21.195Z,22.79
2019-05-29T17:00:15.593Z,22.79
2019-05-29T17:03:07.595Z,22.82
2019-05-29T17:05:59.428Z,22.50
2019-05-29T17:08:51.541Z,21.72
2019-05-29T17:11:43.387Z,21.72
2019-05-29T17:14:35.510Z,22.16
2019-05-29T17:17:30.499Z,22.18
2019-05-29T17:20:36.316Z,22.18
2019-05-29T17:23:28.171Z,22.02
2019-05-29T17:26:20.799Z,22.39
2019-05-29T17:29:13.052Z,22.39
2019-05-29T17:32:05.490Z,22.60
2019-05-29T17:34:57.432Z,22.52
2019-05-29T17:37:49.402Z,22.54
2019-05-29T17:40:41.810Z,22.18
2019-05-29T17:43:33.600Z,22.18
2019-05-29T17:46:25.923Z,22.24
2019-05-29T17:49:17.863Z,22.24
2019-05-29T17:52:10.331Z,21.99
2019-05-29T17:55:03.694Z,21.76
2019-05-29T17:57:55.820Z,21.76
2019-05-29T18:00:47.802Z,21.58
2019-05-29T18:03:40.007Z,21.58
2019-05-29T18:06:32.013Z,21.25
2019-05-29T18:09:27.396Z,21.25
2019-05-29T18:12:19.057Z,21.40
2019-05-29T18:15:10.827Z,21.66
2019-05-29T18:18:02.847Z,21.66
2019-05-29T18:20:54.609Z,21.54
2019-05-29T18:23:46.774Z,21.60
2019-05-29T18:26:46.839Z,21.74
2019-05-29T18:29:32.285Z,21.57
2019-05-29T18:32:24.643Z,21.62
2019-05-29T18:35:16.747Z,21.63
2019-05-29T18:38:08.937Z,21.20
2019-05-29T18:41:01.214Z,21.20
2019-05-29T18:43:53.350Z,21.10
2019-05-29T18:46:45.160Z,21.15
2019-05-29T18:49:37.281Z,21.16
2019-05-29T18:52:29.942Z,21.08
2019-05-29T18:55:22.785Z,21.02
2019-05-29T18:58:14.782Z,21.02
2019-05-29T19:01:06.895Z,20.90
2019-05-29T19:03:58.897Z,20.63
2019-05-29T19:06:50.961Z,20.56
2019-05-29T19:09:42.726Z,20.34
2019-05-29T19:12:35.089Z,20.30
2019-05-29T19:15:28.054Z,20.30
2019-05-29T19:18:20.210Z,19.69
2019-05-29T19:21:12.004Z,19.42
2019-05-29T19:24:03.917Z,19.32
2019-05-29T19:26:55.739Z,19.32
2019-05-29T19:29:47.969Z,18.97
2019-05-29T19:32:39.839Z,18.97
2019-05-29T19:35:31.892Z,18.92
2019-05-29T19:38:24.052Z,18.86
2019-05-29T19:41:15.975Z,18.73
2019-05-29T19:44:10.676Z,18.35
2019-05-29T19:47:03.243Z,18.01
2019-05-29T19:49:55.551Z,18.30
2019-05-29T19:52:47.801Z,18.30
2019-05-29T19:55:39.941Z,18.03
2019-05-29T19:58:31.999Z,18.03
2019-05-29T20:01:31.609Z,17.94
2019-05-29T20:04:17.445Z,17.70
2019-05-29T20:07:09.602Z,17.36
2019-05-29T20:10:01.519Z,17.10
2019-05-29T20:12:53.499Z,17.10
2019-05-29T20:15:46.459Z,16.82
2019-05-29T20:18:38.568Z,16.84
2019-05-29T20:21:30.667Z,16.95
2019-05-29T20:24:22.728Z,17.07
2019-05-29T20:27:14.579Z,17.11
2019-05-29T20:30:07.724Z,17.11
2019-05-29T20:32:59.289Z,17.21
2019-05-29T20:35:51.431Z,16.89
2019-05-29T20:38:43.487Z,16.87
2019-05-29T20:41:38.372Z,16.87
2019-05-29T20:44:28.707Z,16.44
2019-05-29T20:47:20.467Z,16.43
2019-05-29T20:50:12.490Z,16.43
2019-05-29T20:53:04.243Z,16.82
2019-05-29T20:55:56.290Z,16.68
2019-05-29T20:58:48.155Z,16.64
2019-05-29T21:01:45.537Z,16.60
2019-05-29T21:04:34.665Z,16.60
2019-05-29T21:07:26.417Z,16.48
2019-05-29T21:10:18.957Z,16.41
2019-05-29T21:13:10.983Z,15.98
2019-05-29T21:16:02.842Z,15.71
2019-05-29T21:18:54.699Z,15.63
2019-05-29T21:21:46.563Z,15.72
2019-05-29T21:24:38.984Z,15.72
2019-05-29T21:27:31.286Z,15.72
2019-05-29T21:30:23.179Z,15.84
2019-05-29T21:33:15.469Z,15.69
2019-05-29T21:36:07.431Z,15.75
2019-05-29T21:38:59.446Z,15.75
2019-05-29T21:41:51.447Z,15.60
2019-05-29T21:44:44.804Z,15.69
2019-05-29T21:47:37.352Z,15.69
2019-05-29T21:50:29.332Z,15.56
2019-05-29T21:53:22.014Z,15.39
2019-05-29T21:56:14.034Z,15.53
2019-05-29T21:59:06.216Z,15.80
2019-05-29T22:01:58.395Z,15.74
2019-05-29T22:04:50.355Z,15.74
2019-05-29T22:07:42.804Z,16.06
2019-05-29T22:10:35.006Z,16.06
2019-05-29T22:13:26.858Z,16.05
2019-05-29T22:16:18.704Z,16.05
2019-05-29T22:19:10.556Z,15.99
2019-05-29T22:22:02.388Z,15.93
2019-05-29T22:24:55.202Z,15.93
2019-05-29T22:27:46.820Z,15.67
2019-05-29T22:30:38.677Z,15.52
2019-05-29T22:33:30.697Z,15.65
2019-05-29T22:36:22.499Z,15.72
2019-05-29T22:39:14.503Z,15.72
2019-05-29T22:42:06.616Z,15.74
2019-05-29T22:44:58.391Z,15.73
2019-05-29T22:47:51.530Z,15.71
2019-05-29T22:50:43.645Z,15.71
2019-05-29T22:53:35.488Z,15.73
2019-05-29T22:56:28.071Z,15.70
2019-05-29T22:59:31.456Z,15.73
2019-05-29T23:02:13.678Z,15.93
2019-05-29T23:05:06.225Z,15.93
2019-05-29T23:07:58.802Z,15.61
2019-05-29T23:10:52.172Z,15.50
2019-05-29T23:13:44.271Z,15.57
2019-05-29T23:16:36.107Z,15.50
2019-05-29T23:19:27.971Z,15.50
2019-05-29T23:22:19.861Z,15.47
2019-05-29T23:25:11.859Z,15.19
2019-05-29T23:28:03.817Z,14.68
2019-05-29T23:30:56.665Z,14.77
2019-05-29T23:33:49.051Z,14.77
2019-05-29T23:36:41.224Z,14.99
2019-05-29T23:39:33.270Z,15.11
2019-05-29T23:42:25.401Z,15.17
2019-05-29T23:45:17.423Z,15.20
2019-05-29T23:48:09.587Z,15.19
2019-05-29T23:51:02.010Z,15.32
2019-05-29T23:53:55.563Z,15.32
2019-05-29T23:56:48.068Z,15.56
2019-05-29T23:59:40.113Z,15.45
